Time;durP1;ratioP1;P1;durP2;ratioP2;P2;SDS_P1;SDS_P2;PMS_P1;PMS_P2;Temp;Humidity;BMP_temperature;BMP_pressure;BME280_temperature;BME280_humidity;BME280_pressure;Samples;Min_cycle;Max_cycle;Signal;HPM_P1;HPM_P2
2021/09/08 00:02:09;;;;;;;8.45;3.92;;;;;;;;;;143741;612;46018;-54
2021/09/08 00:04:36;;;;;;;10.95;4.55;;;;;;;;;;143740;564;46010;-54
2021/09/08 00:07:03;;;;;;;8.85;4.40;;;;;;;;;;143742;601;45913;-54
2021/09/08 00:09:30;;;;;;;7.20;4.37;;;;;;;;;;143742;623;46023;-54
2021/09/08 00:11:58;;;;;;;11.88;4.72;;;;;;;;;;143739;779;47018;-54
2021/09/08 00:14:24;;;;;;;10.35;4.43;;;;;;;;;;143739;565;46011;-54
2021/09/08 00:16:51;;;;;;;10.57;5.05;;;;;;;;;;143736;609;45019;-54
2021/09/08 00:19:18;;;;;;;9.70;4.78;;;;;;;;;;143741;647;46022;-55
2021/09/08 00:21:46;;;;;;;10.02;4.85;;;;;;;;;;143740;671;46019;-54
2021/09/08 00:24:13;;;;;;;11.38;4.30;;;;;;;;;;143738;594;47022;-53
2021/09/08 00:26:40;;;;;;;16.08;5.30;;;;;;;;;;143743;598;46018;-53
2021/09/08 00:29:07;;;;;;;16.40;6.05;;;;;;;;;;143741;566;46022;-53
2021/09/08 00:31:34;;;;;;;13.23;5.47;;;;;;;;;;143740;600;46021;-53
2021/09/08 00:34:01;;;;;;;9.30;4.90;;;;;;;;;;143740;601;46010;-53
2021/09/08 00:36:28;;;;;;;11.20;5.15;;;;;;;;;;143741;646;45913;-53
2021/09/08 00:38:56;;;;;;;11.40;5.78;;;;;;;;;;143741;637;46023;-53
2021/09/08 00:41:23;;;;;;;9.75;4.53;;;;;;;;;;143733;652;46018;-52
2021/09/08 00:43:50;;;;;;;13.50;4.20;;;;;;;;;;143739;609;46010;-53
2021/09/08 00:46:17;;;;;;;16.90;5.15;;;;;;;;;;143742;671;45019;-53
2021/09/08 00:48:44;;;;;;;8.80;4.47;;;;;;;;;;143743;569;46022;-53
2021/09/08 00:51:11;;;;;;;10.10;3.45;;;;;;;;;;143740;586;46020;-53
2021/09/08 00:53:41;;;;;;;11.65;4.35;;;;;;;;;;143738;606;46011;-53
2021/09/08 00:56:09;;;;;;;10.75;4.15;;;;;;;;;;143742;579;45018;-53
2021/09/08 00:58:37;;;;;;;12.52;4.40;;;;;;;;;;143743;630;46022;-53
2021/09/08 01:01:04;;;;;;;10.50;3.83;;;;;;;;;;143741;583;46019;-53
2021/09/08 01:03:31;;;;;;;7.50;3.55;;;;;;;;;;143739;651;46010;-53
2021/09/08 01:05:58;;;;;;;16.05;5.07;;;;;;;;;;143736;564;45913;-52
2021/09/08 01:08:25;;;;;;;13.70;4.28;;;;;;;;;;143742;569;46023;-53
2021/09/08 01:10:53;;;;;;;15.43;3.92;;;;;;;;;;143738;565;46018;-53
2021/09/08 01:13:20;;;;;;;13.60;4.65;;;;;;;;;;143739;589;46010;-53
2021/09/08 01:16:05;;;;;;;11.85;3.97;;;;;;;;;;143739;682;45913;-53
2021/09/08 01:18:33;;;;;;;11.77;5.33;;;;;;;;;;143743;600;46022;-53
2021/09/08 01:21:00;;;;;;;13.32;4.90;;;;;;;;;;143741;689;46020;-53
2021/09/08 01:23:27;;;;;;;14.38;4.37;;;;;;;;;;143738;631;46010;-53
2021/09/08 01:25:54;;;;;;;12.52;4.85;;;;;;;;;;143743;595;45912;-53
2021/09/08 01:28:22;;;;;;;10.02;4.30;;;;;;;;;;143741;802;46023;-52
2021/09/08 01:30:56;;;;;;;8.80;4.10;;;;;;;;;;143732;881;46021;-53
2021/09/08 01:33:23;;;;;;;9.68;4.55;;;;;;;;;;143739;582;46010;-53
2021/09/08 01:35:51;;;;;;;12.00;4.32;;;;;;;;;;143745;615;45019;-53
2021/09/08 01:38:18;;;;;;;11.32;4.55;;;;;;;;;;143741;669;46023;-52
2021/09/08 01:40:45;;;;;;;12.75;3.78;;;;;;;;;;143739;600;46018;-52
2021/09/08 01:43:12;;;;;;;9.65;4.25;;;;;;;;;;143738;617;46011;-53
2021/09/08 01:45:41;;;;;;;7.95;3.50;;;;;;;;;;143742;593;45913;-53
2021/09/08 01:48:09;;;;;;;12.25;4.40;;;;;;;;;;143742;590;46022;-52
2021/09/08 01:50:37;;;;;;;8.32;4.25;;;;;;;;;;143736;698;47018;-53
2021/09/08 01:53:04;;;;;;;8.35;4.03;;;;;;;;;;143737;644;46010;-53
2021/09/08 01:55:31;;;;;;;11.12;4.28;;;;;;;;;;143737;702;45912;-53
2021/09/08 01:57:58;;;;;;;12.15;4.35;;;;;;;;;;143740;588;46022;-53
2021/09/08 02:00:26;;;;;;;11.93;4.32;;;;;;;;;;143724;596;47021;-53
2021/09/08 02:02:53;;;;;;;7.62;3.80;;;;;;;;;;143730;704;46010;-53
2021/09/08 02:05:20;;;;;;;8.27;4.10;;;;;;;;;;143727;608;46034;-53
2021/09/08 02:07:48;;;;;;;13.20;4.45;;;;;;;;;;143728;907;46023;-53
2021/09/08 02:10:15;;;;;;;8.05;4.25;;;;;;;;;;143726;597;46018;-53
2021/09/08 02:12:43;;;;;;;9.60;3.97;;;;;;;;;;143724;673;46010;-53
2021/09/08 02:15:10;;;;;;;8.43;4.10;;;;;;;;;;143727;855;45913;-53
2021/09/08 02:17:37;;;;;;;9.73;4.55;;;;;;;;;;143722;599;46022;-53
2021/09/08 02:20:05;;;;;;;10.00;4.22;;;;;;;;;;143726;613;46018;-53
2021/09/08 02:22:32;;;;;;;9.18;3.87;;;;;;;;;;143728;618;46010;-53
2021/09/08 02:24:59;;;;;;;10.82;4.25;;;;;;;;;;143742;564;45018;-53
2021/09/08 02:27:27;;;;;;;10.00;4.30;;;;;;;;;;143740;600;46022;-53
2021/09/08 02:29:54;;;;;;;13.65;4.18;;;;;;;;;;143740;639;46018;-53
2021/09/08 02:32:21;;;;;;;11.20;3.83;;;;;;;;;;143739;602;46010;-53
2021/09/08 02:34:49;;;;;;;11.60;4.62;;;;;;;;;;143742;767;45031;-53
2021/09/08 02:37:17;;;;;;;15.13;4.28;;;;;;;;;;143742;564;46023;-53
2021/09/08 02:39:44;;;;;;;10.25;4.45;;;;;;;;;;143740;644;46018;-53
2021/09/08 02:42:12;;;;;;;10.07;4.07;;;;;;;;;;143738;730;46010;-53
2021/09/08 02:44:39;;;;;;;13.32;4.25;;;;;;;;;;143736;582;45913;-53
2021/09/08 02:47:06;;;;;;;11.25;4.70;;;;;;;;;;143742;856;46022;-53
2021/09/08 02:49:33;;;;;;;9.20;3.65;;;;;;;;;;143740;640;46018;-53
2021/09/08 02:52:00;;;;;;;8.10;4.15;;;;;;;;;;143739;711;46010;-53
2021/09/08 02:54:28;;;;;;;12.10;4.07;;;;;;;;;;143741;628;45912;-53
2021/09/08 02:56:55;;;;;;;12.45;4.45;;;;;;;;;;143742;897;46022;-53
2021/09/08 02:59:22;;;;;;;7.97;4.12;;;;;;;;;;143740;579;46018;-53
2021/09/08 03:01:49;;;;;;;8.88;3.85;;;;;;;;;;143739;712;46010;-53
2021/09/08 03:04:16;;;;;;;15.68;4.28;;;;;;;;;;143743;569;45912;-53
2021/09/08 03:06:43;;;;;;;10.88;4.30;;;;;;;;;;143741;655;46023;-54
2021/09/08 03:09:10;;;;;;;12.18;4.30;;;;;;;;;;143734;569;46018;-54
2021/09/08 03:11:37;;;;;;;11.43;4.25;;;;;;;;;;143740;618;46010;-54
2021/09/08 03:14:04;;;;;;;7.97;3.70;;;;;;;;;;143744;595;45019;-53
2021/09/08 03:16:31;;;;;;;8.95;3.85;;;;;;;;;;143743;569;46022;-54
2021/09/08 03:18:58;;;;;;;8.77;3.40;;;;;;;;;;143739;687;46018;-53
2021/09/08 03:21:26;;;;;;;10.60;4.32;;;;;;;;;;143738;621;47010;-54
2021/09/08 03:23:53;;;;;;;9.23;3.75;;;;;;;;;;143742;565;45912;-54
2021/09/08 03:26:20;;;;;;;8.20;3.87;;;;;;;;;;143743;880;46022;-53
2021/09/08 03:28:47;;;;;;;13.82;4.00;;;;;;;;;;143740;650;46018;-54
2021/09/08 03:31:14;;;;;;;13.43;4.18;;;;;;;;;;143739;601;46019;-54
2021/09/08 03:33:41;;;;;;;12.32;4.35;;;;;;;;;;143735;613;45913;-54
2021/09/08 03:36:08;;;;;;;11.95;4.18;;;;;;;;;;143741;566;46023;-54
2021/09/08 03:38:35;;;;;;;10.50;4.82;;;;;;;;;;143739;594;47018;-53
2021/09/08 03:41:02;;;;;;;11.88;3.90;;;;;;;;;;143737;610;46010;-52
2021/09/08 03:43:29;;;;;;;10.52;4.37;;;;;;;;;;143742;565;45019;-54
2021/09/08 03:45:56;;;;;;;10.00;4.00;;;;;;;;;;143742;564;46022;-54
2021/09/08 03:48:24;;;;;;;12.05;4.47;;;;;;;;;;143741;569;46018;-53
2021/09/08 03:50:51;;;;;;;9.43;4.15;;;;;;;;;;143738;577;46011;-54
2021/09/08 03:53:18;;;;;;;8.25;3.75;;;;;;;;;;143740;575;46012;-53
2021/09/08 03:55:45;;;;;;;14.60;4.93;;;;;;;;;;143743;603;46022;-54
2021/09/08 03:58:12;;;;;;;11.82;4.87;;;;;;;;;;143733;634;46020;-53
2021/09/08 04:00:39;;;;;;;8.57;4.53;;;;;;;;;;143737;645;46022;-53
2021/09/08 04:03:06;;;;;;;13.02;4.45;;;;;;;;;;143744;596;45018;-53
2021/09/08 04:05:33;;;;;;;10.48;4.55;;;;;;;;;;143742;614;46023;-54
2021/09/08 04:08:01;;;;;;;9.20;4.35;;;;;;;;;;143739;565;46018;-54
2021/09/08 04:10:28;;;;;;;12.68;4.43;;;;;;;;;;143739;618;46010;-53
2021/09/08 04:12:55;;;;;;;15.48;4.78;;;;;;;;;;143742;609;45913;-54
2021/09/08 04:15:22;;;;;;;13.65;4.35;;;;;;;;;;143741;719;46022;-53
2021/09/08 04:17:49;;;;;;;13.95;4.57;;;;;;;;;;143740;569;46018;-54
2021/09/08 04:20:17;;;;;;;10.45;4.62;;;;;;;;;;143737;812;46010;-53
2021/09/08 04:22:44;;;;;;;11.15;4.93;;;;;;;;;;143737;656;45912;-54
2021/09/08 04:25:11;;;;;;;11.50;4.05;;;;;;;;;;143741;726;46022;-54
2021/09/08 04:27:39;;;;;;;11.20;4.03;;;;;;;;;;143741;576;46019;-53
2021/09/08 04:30:06;;;;;;;9.65;4.00;;;;;;;;;;143739;654;46010;-53
2021/09/08 04:32:34;;;;;;;13.95;5.05;;;;;;;;;;143745;589;45018;-54
2021/09/08 04:35:01;;;;;;;11.75;4.03;;;;;;;;;;143742;618;46022;-53
2021/09/08 04:37:28;;;;;;;10.30;4.15;;;;;;;;;;143740;602;46018;-54
2021/09/08 04:39:55;;;;;;;10.35;3.90;;;;;;;;;;143739;592;46010;-54
2021/09/08 04:42:22;;;;;;;11.35;4.22;;;;;;;;;;143743;659;45019;-54
2021/09/08 04:44:49;;;;;;;10.00;4.85;;;;;;;;;;143742;723;46023;-54
2021/09/08 04:47:16;;;;;;;14.68;4.43;;;;;;;;;;143734;778;46018;-53
2021/09/08 04:49:43;;;;;;;10.65;4.20;;;;;;;;;;143740;573;46011;-53
2021/09/08 04:52:11;;;;;;;10.07;4.72;;;;;;;;;;143743;662;45913;-54
2021/09/08 04:54:37;;;;;;;9.80;4.00;;;;;;;;;;143743;615;46022;-53
2021/09/08 04:57:04;;;;;;;10.25;4.87;;;;;;;;;;143741;756;46019;-53
2021/09/08 04:59:31;;;;;;;13.55;4.32;;;;;;;;;;143739;628;46921;-53
2021/09/08 05:01:58;;;;;;;13.35;4.40;;;;;;;;;;143744;573;45018;-54
2021/09/08 05:04:26;;;;;;;10.52;4.32;;;;;;;;;;143742;782;46022;-53
2021/09/08 05:06:53;;;;;;;9.75;3.85;;;;;;;;;;143740;617;46019;-54
2021/09/08 05:09:20;;;;;;;13.07;4.65;;;;;;;;;;143737;829;46010;-53
2021/09/08 05:11:47;;;;;;;12.80;4.68;;;;;;;;;;143737;734;45018;-54
2021/09/08 05:14:14;;;;;;;9.10;3.70;;;;;;;;;;143743;625;46023;-54
2021/09/08 05:16:41;;;;;;;12.27;4.68;;;;;;;;;;143739;727;46018;-53
2021/09/08 05:19:08;;;;;;;8.75;4.35;;;;;;;;;;143740;657;46010;-53
2021/09/08 05:21:35;;;;;;;8.40;4.00;;;;;;;;;;143743;564;45913;-54
2021/09/08 05:24:03;;;;;;;12.07;4.55;;;;;;;;;;143742;599;46022;-53
2021/09/08 05:26:30;;;;;;;13.57;4.47;;;;;;;;;;143743;882;46018;-53
2021/09/08 05:28:57;;;;;;;10.48;4.22;;;;;;;;;;143739;583;46010;-52
2021/09/08 05:31:23;;;;;;;11.10;4.10;;;;;;;;;;143744;573;45018;-52
2021/09/08 05:33:51;;;;;;;12.18;3.97;;;;;;;;;;143741;743;46022;-53
2021/09/08 05:36:18;;;;;;;16.15;5.55;;;;;;;;;;143736;601;46019;-53
2021/09/08 05:38:45;;;;;;;12.70;4.62;;;;;;;;;;143739;599;46010;-53
2021/09/08 05:41:13;;;;;;;11.20;5.57;;;;;;;;;;143739;636;46018;-52
2021/09/08 05:43:40;;;;;;;15.07;6.18;;;;;;;;;;143743;601;46023;-52
2021/09/08 05:46:07;;;;;;;11.60;4.95;;;;;;;;;;143742;581;46018;-53
2021/09/08 05:48:34;;;;;;;12.35;5.65;;;;;;;;;;143739;648;46010;-53
2021/09/08 05:51:02;;;;;;;14.65;5.70;;;;;;;;;;143741;592;46018;-53
2021/09/08 05:53:29;;;;;;;11.63;4.45;;;;;;;;;;143743;692;46022;-52
2021/09/08 05:55:56;;;;;;;12.68;5.15;;;;;;;;;;143740;632;47018;-53
2021/09/08 05:58:23;;;;;;;9.75;3.90;;;;;;;;;;143739;602;47023;-53
2021/09/08 06:00:51;;;;;;;12.27;4.35;;;;;;;;;;143737;569;45912;-53
2021/09/08 06:03:18;;;;;;;13.07;5.40;;;;;;;;;;143742;577;46022;-53
2021/09/08 06:05:45;;;;;;;17.33;5.12;;;;;;;;;;143741;666;46019;-53
2021/09/08 06:08:12;;;;;;;10.65;4.12;;;;;;;;;;143739;617;46010;-53
2021/09/08 06:10:40;;;;;;;11.95;4.60;;;;;;;;;;143743;588;45915;-53
2021/09/08 06:13:06;;;;;;;9.70;4.22;;;;;;;;;;143742;571;46021;-52
2021/09/08 06:15:33;;;;;;;12.43;4.82;;;;;;;;;;143740;637;47020;-53
2021/09/08 06:18:02;;;;;;;12.90;4.47;;;;;;;;;;143740;585;46010;-52
2021/09/08 06:20:30;;;;;;;9.60;4.22;;;;;;;;;;143746;589;45019;-53
2021/09/08 06:22:57;;;;;;;9.98;4.55;;;;;;;;;;143745;587;46022;-52
2021/09/08 06:25:24;;;;;;;11.18;4.57;;;;;;;;;;143734;659;47018;-52
2021/09/08 06:27:51;;;;;;;8.30;4.00;;;;;;;;;;143740;603;46010;-52
2021/09/08 06:30:18;;;;;;;10.32;4.72;;;;;;;;;;143744;589;45018;-52
2021/09/08 06:32:45;;;;;;;11.25;4.30;;;;;;;;;;143745;611;46022;-52
2021/09/08 06:35:12;;;;;;;12.43;4.30;;;;;;;;;;143743;602;46018;-52
2021/09/08 06:37:39;;;;;;;10.80;4.90;;;;;;;;;;143741;598;46022;-53
2021/09/08 06:40:07;;;;;;;11.23;4.60;;;;;;;;;;143744;584;45912;-53
2021/09/08 06:42:34;;;;;;;10.63;3.78;;;;;;;;;;143744;619;46023;-53
2021/09/08 06:45:01;;;;;;;12.00;4.43;;;;;;;;;;143738;617;46018;-53
2021/09/08 06:47:28;;;;;;;8.55;4.18;;;;;;;;;;143741;601;46010;-52
2021/09/08 06:49:56;;;;;;;8.80;4.12;;;;;;;;;;143736;587;45019;-52
2021/09/08 06:52:23;;;;;;;9.35;4.03;;;;;;;;;;143744;625;46022;-52
2021/09/08 06:54:50;;;;;;;11.75;4.25;;;;;;;;;;143742;576;46018;-53
2021/09/08 06:57:17;;;;;;;7.85;4.00;;;;;;;;;;143739;673;46011;-53
2021/09/08 06:59:44;;;;;;;8.30;4.45;;;;;;;;;;143745;572;45912;-53
2021/09/08 07:02:12;;;;;;;10.60;4.40;;;;;;;;;;143744;606;46022;-52
2021/09/08 07:04:40;;;;;;;7.28;4.07;;;;;;;;;;143742;578;46019;-53
2021/09/08 07:07:07;;;;;;;9.70;4.12;;;;;;;;;;143742;610;46010;-53
2021/09/08 07:09:34;;;;;;;7.70;3.95;;;;;;;;;;143745;601;45018;-53
2021/09/08 07:12:01;;;;;;;11.60;4.57;;;;;;;;;;143744;587;46023;-52
2021/09/08 07:14:28;;;;;;;10.88;4.18;;;;;;;;;;143735;625;46018;-53
2021/09/08 07:16:55;;;;;;;12.18;4.60;;;;;;;;;;143741;569;46010;-52
2021/09/08 07:19:22;;;;;;;10.90;4.50;;;;;;;;;;143744;622;45914;-53
2021/09/08 07:21:49;;;;;;;9.65;3.67;;;;;;;;;;143744;567;46020;-53
2021/09/08 07:24:17;;;;;;;9.25;3.80;;;;;;;;;;143740;572;46020;-53
2021/09/08 07:26:45;;;;;;;9.07;4.03;;;;;;;;;;143740;614;46010;-53
2021/09/08 07:29:12;;;;;;;11.50;4.75;;;;;;;;;;143743;613;45019;-53
2021/09/08 07:31:39;;;;;;;7.35;3.78;;;;;;;;;;143744;596;46022;-53
2021/09/08 07:34:06;;;;;;;10.65;4.00;;;;;;;;;;143741;583;47019;-53
2021/09/08 07:36:33;;;;;;;8.23;3.78;;;;;;;;;;143741;586;46010;-52
2021/09/08 07:39:00;;;;;;;8.57;4.05;;;;;;;;;;143738;571;45912;-52
2021/09/08 07:41:27;;;;;;;8.60;4.18;;;;;;;;;;143744;622;46022;-53
2021/09/08 07:43:54;;;;;;;7.72;3.45;;;;;;;;;;143743;607;46018;-53
2021/09/08 07:46:21;;;;;;;7.85;3.92;;;;;;;;;;143741;590;46010;-53
2021/09/08 07:48:48;;;;;;;10.15;4.37;;;;;;;;;;143744;603;45913;-53
2021/09/08 07:51:15;;;;;;;9.55;4.47;;;;;;;;;;143744;609;46023;-53
2021/09/08 07:53:42;;;;;;;9.07;3.75;;;;;;;;;;143742;573;47018;-53
2021/09/08 07:56:09;;;;;;;6.12;3.90;;;;;;;;;;143741;585;46011;-53
2021/09/08 07:58:36;;;;;;;9.07;4.05;;;;;;;;;;143743;604;45912;-53
2021/09/08 08:01:03;;;;;;;9.02;4.43;;;;;;;;;;143744;595;46022;-53
2021/09/08 08:03:30;;;;;;;9.63;4.18;;;;;;;;;;143734;605;46020;-53
2021/09/08 08:05:58;;;;;;;10.25;4.32;;;;;;;;;;143741;579;46010;-53
2021/09/08 08:08:25;;;;;;;8.77;3.80;;;;;;;;;;143744;569;45913;-53
2021/09/08 08:10:52;;;;;;;10.45;4.30;;;;;;;;;;143744;606;46023;-53
2021/09/08 08:13:19;;;;;;;8.85;3.85;;;;;;;;;;143740;578;46020;-53
2021/09/08 08:15:46;;;;;;;8.52;4.43;;;;;;;;;;143740;569;47010;-53
2021/09/08 08:18:13;;;;;;;13.15;4.00;;;;;;;;;;143741;564;46017;-53
2021/09/08 08:20:41;;;;;;;8.32;3.60;;;;;;;;;;143744;595;46023;-53
2021/09/08 08:23:09;;;;;;;12.63;4.20;;;;;;;;;;143743;733;46018;-52
2021/09/08 08:25:36;;;;;;;9.13;4.68;;;;;;;;;;143739;577;46010;-53
2021/09/08 08:28:04;;;;;;;7.82;4.30;;;;;;;;;;143738;574;45913;-54
2021/09/08 08:30:33;;;;;;;9.13;4.32;;;;;;;;;;143743;602;46022;-53
2021/09/08 08:33:01;;;;;;;9.32;4.50;;;;;;;;;;143744;576;46019;-53
2021/09/08 08:35:28;;;;;;;9.18;4.22;;;;;;;;;;143740;572;46010;-53
2021/09/08 08:37:55;;;;;;;9.55;4.32;;;;;;;;;;143745;626;45018;-53
2021/09/08 08:40:23;;;;;;;10.25;4.03;;;;;;;;;;143745;624;46023;-53
2021/09/08 08:42:50;;;;;;;14.93;6.15;;;;;;;;;;143742;607;46018;-53
2021/09/08 08:45:18;;;;;;;8.70;5.00;;;;;;;;;;143736;594;46022;-53
2021/09/08 08:47:44;;;;;;;7.75;3.90;;;;;;;;;;143743;571;45913;-53
2021/09/08 08:50:13;;;;;;;8.70;4.10;;;;;;;;;;143744;608;46023;-53
2021/09/08 08:52:41;;;;;;;8.07;3.87;;;;;;;;;;143736;624;46018;-53
2021/09/08 08:55:08;;;;;;;10.63;4.68;;;;;;;;;;143742;613;46010;-53
2021/09/08 08:57:36;;;;;;;9.20;4.12;;;;;;;;;;143744;610;45913;-53
2021/09/08 09:00:04;;;;;;;7.82;4.30;;;;;;;;;;143745;570;46022;-53
2021/09/08 09:02:32;;;;;;;11.32;4.15;;;;;;;;;;143742;639;46020;-54
2021/09/08 09:05:01;;;;;;;9.25;3.97;;;;;;;;;;143742;581;46010;-53
2021/09/08 09:07:33;;;;;;;10.13;4.20;;;;;;;;;;143745;592;45018;-53
2021/09/08 09:10:06;;;;;;;7.80;4.03;;;;;;;;;;143745;600;46022;-54
2021/09/08 09:12:36;;;;;;;11.57;4.40;;;;;;;;;;143742;570;46018;-54
2021/09/08 09:15:06;;;;;;;7.25;4.10;;;;;;;;;;143739;673;46010;-53
2021/09/08 09:17:34;;;;;;;10.95;4.10;;;;;;;;;;143738;576;45913;-54
2021/09/08 09:20:17;;;;;;;9.43;4.55;;;;;;;;;;143745;595;46023;-54
2021/09/08 09:22:51;;;;;;;17.60;4.55;;;;;;;;;;143745;566;46018;-54
2021/09/08 09:25:22;;;;;;;9.15;4.30;;;;;;;;;;143742;619;46010;-54
2021/09/08 09:27:54;;;;;;;7.78;4.25;;;;;;;;;;143742;582;46018;-53
2021/09/08 09:30:24;;;;;;;10.93;4.72;;;;;;;;;;143740;588;46022;-54
2021/09/08 09:32:53;;;;;;;6.62;3.97;;;;;;;;;;143742;594;46019;-54
2021/09/08 09:35:25;;;;;;;12.82;4.03;;;;;;;;;;143738;605;46010;-54
2021/09/08 09:37:55;;;;;;;9.18;3.83;;;;;;;;;;143744;613;45018;-54
2021/09/08 09:40:32;;;;;;;8.93;4.65;;;;;;;;;;143744;633;46023;-54
2021/09/08 09:43:11;;;;;;;10.10;4.50;;;;;;;;;;143735;595;46018;-54
2021/09/08 09:45:40;;;;;;;8.48;4.35;;;;;;;;;;143740;610;46010;-53
2021/09/08 09:48:08;;;;;;;10.65;4.93;;;;;;;;;;143744;636;45019;-54
2021/09/08 09:50:36;;;;;;;10.73;4.53;;;;;;;;;;143743;618;46022;-53
2021/09/08 09:53:03;;;;;;;13.60;5.12;;;;;;;;;;143743;623;46018;-54
2021/09/08 09:55:30;;;;;;;11.85;4.15;;;;;;;;;;143739;567;46023;-54
2021/09/08 09:57:59;;;;;;;12.80;5.12;;;;;;;;;;143744;716;45019;-53
2021/09/08 10:00:26;;;;;;;12.57;5.82;;;;;;;;;;143743;595;46022;-53
2021/09/08 10:02:53;;;;;;;9.90;5.40;;;;;;;;;;143742;618;46019;-53
2021/09/08 10:05:20;;;;;;;9.85;5.50;;;;;;;;;;143742;804;46010;-53
2021/09/08 10:07:48;;;;;;;14.70;6.07;;;;;;;;;;143737;600;45018;-53
2021/09/08 10:10:30;;;;;;;9.73;5.87;;;;;;;;;;143745;810;46023;-53
2021/09/08 10:13:14;;;;;;;12.13;6.10;;;;;;;;;;143743;616;46018;-54
2021/09/08 10:15:41;;;;;;;11.98;5.25;;;;;;;;;;143740;626;47010;-53
2021/09/08 10:18:11;;;;;;;6.93;4.45;;;;;;;;;;143746;616;45019;-53
2021/09/08 10:20:38;;;;;;;9.10;5.20;;;;;;;;;;143744;666;46022;-53
2021/09/08 10:23:09;;;;;;;8.32;4.22;;;;;;;;;;143739;569;46018;-54
2021/09/08 10:25:37;;;;;;;9.10;4.62;;;;;;;;;;143740;564;46011;-53
2021/09/08 10:28:13;;;;;;;11.30;4.30;;;;;;;;;;143743;623;45912;-53
2021/09/08 10:30:42;;;;;;;9.50;4.45;;;;;;;;;;143744;605;46022;-53
2021/09/08 10:33:10;;;;;;;13.68;5.45;;;;;;;;;;143736;564;46018;-53
2021/09/08 10:35:39;;;;;;;8.50;4.43;;;;;;;;;;143742;628;46010;-53
2021/09/08 10:38:15;;;;;;;11.60;4.82;;;;;;;;;;143744;607;45018;-53
2021/09/08 10:40:44;;;;;;;9.57;4.80;;;;;;;;;;143743;585;46023;-52
2021/09/08 10:43:12;;;;;;;13.93;5.37;;;;;;;;;;143742;603;46018;-53
2021/09/08 10:45:51;;;;;;;11.77;4.97;;;;;;;;;;143740;578;46010;-53
2021/09/08 10:48:43;;;;;;;13.57;5.87;;;;;;;;;;143743;598;45913;-53
2021/09/08 10:51:37;;;;;;;9.07;4.62;;;;;;;;;;143745;598;46022;-52
2021/09/08 10:54:05;;;;;;;11.68;5.45;;;;;;;;;;143741;627;46019;-53
2021/09/08 10:56:44;;;;;;;13.50;6.00;;;;;;;;;;143739;633;46010;-53
2021/09/08 10:59:11;;;;;;;10.07;5.55;;;;;;;;;;143737;577;45018;-53
2021/09/08 11:01:38;;;;;;;10.45;5.12;;;;;;;;;;143742;772;46022;-53
2021/09/08 11:04:16;;;;;;;9.85;5.47;;;;;;;;;;143740;678;46019;-54
2021/09/08 11:06:48;;;;;;;15.13;5.50;;;;;;;;;;143739;567;46010;-53
2021/09/08 11:09:19;;;;;;;10.57;4.87;;;;;;;;;;143743;724;45018;-53
2021/09/08 11:11:58;;;;;;;10.50;4.95;;;;;;;;;;143743;678;46023;-54
2021/09/08 11:14:50;;;;;;;9.63;5.10;;;;;;;;;;143740;679;46027;-54
2021/09/08 11:17:21;;;;;;;12.90;6.12;;;;;;;;;;143740;584;46010;-54
2021/09/08 11:19:56;;;;;;;8.90;5.32;;;;;;;;;;143740;593;47016;-54
2021/09/08 11:22:23;;;;;;;9.00;4.85;;;;;;;;;;143742;602;46022;-53
2021/09/08 11:25:11;;;;;;;8.27;4.97;;;;;;;;;;143732;564;46019;-54
2021/09/08 11:27:42;;;;;;;9.70;4.87;;;;;;;;;;143737;610;47010;-54
2021/09/08 11:30:11;;;;;;;9.70;5.12;;;;;;;;;;143740;579;45911;-53
2021/09/08 11:33:05;;;;;;;9.75;5.22;;;;;;;;;;143743;764;46023;-53
2021/09/08 11:35:53;;;;;;;14.55;5.97;;;;;;;;;;143740;625;46018;-53
2021/09/08 11:38:23;;;;;;;12.70;5.55;;;;;;;;;;143740;577;46010;-54
2021/09/08 11:41:01;;;;;;;11.15;5.15;;;;;;;;;;143741;683;45911;-53
2021/09/08 11:43:37;;;;;;;12.82;5.50;;;;;;;;;;143742;672;46022;-53
2021/09/08 11:46:25;;;;;;;10.98;5.15;;;;;;;;;;143740;751;46019;-54
2021/09/08 11:49:03;;;;;;;14.43;5.95;;;;;;;;;;143738;747;46010;-53
2021/09/08 11:51:35;;;;;;;10.10;4.82;;;;;;;;;;143736;716;45911;-53
2021/09/08 11:54:04;;;;;;;10.40;5.10;;;;;;;;;;143742;645;46023;-53
2021/09/08 11:56:32;;;;;;;12.13;5.47;;;;;;;;;;143740;576;46021;-53
2021/09/08 11:59:04;;;;;;;9.35;5.60;;;;;;;;;;143737;585;46010;-53
2021/09/08 12:01:36;;;;;;;16.10;5.72;;;;;;;;;;143741;771;45911;-53
2021/09/08 12:04:04;;;;;;;11.70;5.50;;;;;;;;;;143742;593;46023;-53
2021/09/08 12:06:32;;;;;;;9.57;5.80;;;;;;;;;;143742;771;46018;-53
2021/09/08 12:09:12;;;;;;;15.00;5.78;;;;;;;;;;143739;817;46019;-55
2021/09/08 12:11:47;;;;;;;12.37;5.60;;;;;;;;;;143742;569;45911;-55
2021/09/08 12:14:24;;;;;;;;;;;;;;;;;;143748;980;46022;-55
2021/09/08 12:16:59;;;;;;;8.15;5.45;;;;;;;;;;143746;599;46020;-55
2021/09/08 12:19:29;;;;;;;;;;;;;;;;;;143744;977;46010;-55
2021/09/08 12:22:15;;;;;;;12.43;6.85;;;;;;;;;;143747;582;45925;-55
2021/09/08 12:24:55;;;;;;;11.90;6.65;;;;;;;;;;143742;575;46023;-55
2021/09/08 12:27:33;;;;;;;13.38;6.18;;;;;;;;;;143739;626;47018;-55
2021/09/08 12:30:23;;;;;;;12.23;6.05;;;;;;;;;;143739;685;46010;-55
2021/09/08 12:33:04;;;;;;;13.38;5.57;;;;;;;;;;143741;624;45021;-55
2021/09/08 12:35:57;;;;;;;13.02;5.80;;;;;;;;;;143742;575;46022;-55
2021/09/08 12:38:43;;;;;;;17.83;6.10;;;;;;;;;;143739;768;47018;-55
2021/09/08 12:41:31;;;;;;;14.57;6.57;;;;;;;;;;143739;593;46010;-55
2021/09/08 12:44:05;;;;;;;9.38;6.43;;;;;;;;;;143737;621;45911;-55
2021/09/08 12:46:46;;;;;;;12.65;5.70;;;;;;;;;;143741;573;46023;-55
2021/09/08 12:49:22;;;;;;;8.77;5.35;;;;;;;;;;143741;571;46018;-55
2021/09/08 12:51:49;;;;;;;10.43;5.65;;;;;;;;;;143739;719;46010;-55
2021/09/08 12:54:16;;;;;;;10.18;6.07;;;;;;;;;;143742;586;45019;-55
2021/09/08 12:56:45;;;;;;;12.68;5.40;;;;;;;;;;143742;720;46022;-55
2021/09/08 12:59:14;;;;;;;9.90;5.28;;;;;;;;;;143740;756;46018;-55
2021/09/08 13:01:41;;;;;;;8.57;5.43;;;;;;;;;;143740;564;46010;-55
2021/09/08 13:04:09;;;;;;;11.57;6.10;;;;;;;;;;143742;892;45910;-55
2021/09/08 13:06:35;;;;;;;10.18;5.93;;;;;;;;;;143742;607;46022;-55
2021/09/08 13:09:02;;;;;;;7.87;6.05;;;;;;;;;;143734;614;46019;-55
2021/09/08 13:11:29;;;;;;;8.20;5.50;;;;;;;;;;143739;604;46010;-55
2021/09/08 13:13:56;;;;;;;8.30;5.30;;;;;;;;;;143743;674;45018;-55
2021/09/08 13:16:23;;;;;;;8.85;5.90;;;;;;;;;;143738;564;46023;-55
2021/09/08 13:18:50;;;;;;;6.82;4.82;;;;;;;;;;143741;759;46018;-55
2021/09/08 13:21:17;;;;;;;11.00;5.25;;;;;;;;;;143739;750;46022;-55
2021/09/08 13:23:45;;;;;;;8.05;5.10;;;;;;;;;;143743;683;45019;-55
2021/09/08 13:26:12;;;;;;;7.75;5.37;;;;;;;;;;143743;596;46023;-55
2021/09/08 13:28:39;;;;;;;8.90;4.93;;;;;;;;;;143740;600;46018;-55
2021/09/08 13:31:08;;;;;;;7.90;5.53;;;;;;;;;;143739;657;46010;-55
2021/09/08 13:33:36;;;;;;;11.05;5.18;;;;;;;;;;143736;642;45910;-55
2021/09/08 13:36:03;;;;;;;10.05;5.62;;;;;;;;;;143741;793;46022;-55
2021/09/08 13:38:30;;;;;;;7.12;5.10;;;;;;;;;;143740;671;46019;-55
2021/09/08 13:40:58;;;;;;;10.73;6.00;;;;;;;;;;143740;614;46010;-56
2021/09/08 13:43:25;;;;;;;8.23;5.37;;;;;;;;;;143740;577;45913;-55
2021/09/08 13:45:52;;;;;;;8.55;5.30;;;;;;;;;;143741;606;46021;-55
2021/09/08 13:48:21;;;;;;;10.25;5.32;;;;;;;;;;143741;579;46018;-55
2021/09/08 13:50:48;;;;;;;8.20;5.32;;;;;;;;;;143740;612;46010;-55
2021/09/08 13:53:15;;;;;;;11.05;5.78;;;;;;;;;;143742;628;45019;-55
2021/09/08 13:55:42;;;;;;;7.62;5.15;;;;;;;;;;143742;605;46023;-55
2021/09/08 13:58:10;;;;;;;8.18;5.20;;;;;;;;;;143733;722;46018;-55
2021/09/08 14:00:37;;;;;;;11.98;6.28;;;;;;;;;;143738;587;46011;-55
2021/09/08 14:03:05;;;;;;;13.23;5.25;;;;;;;;;;143743;578;45911;-55
2021/09/08 14:05:32;;;;;;;7.47;5.60;;;;;;;;;;143741;612;46022;-55
2021/09/08 14:07:59;;;;;;;7.93;5.53;;;;;;;;;;143739;636;46019;-55
2021/09/08 14:10:29;;;;;;;11.23;5.85;;;;;;;;;;143740;697;46010;-55
2021/09/08 14:12:56;;;;;;;8.20;5.20;;;;;;;;;;143742;843;45911;-55
2021/09/08 14:15:23;;;;;;;7.97;5.50;;;;;;;;;;143743;874;46022;-55
2021/09/08 14:17:50;;;;;;;7.07;4.60;;;;;;;;;;143740;659;46018;-55
2021/09/08 14:20:17;;;;;;;8.30;5.45;;;;;;;;;;143739;587;46010;-55
2021/09/08 14:22:44;;;;;;;11.80;6.10;;;;;;;;;;143735;580;45019;-55
2021/09/08 14:25:11;;;;;;;7.62;4.95;;;;;;;;;;143742;578;46023;-55
2021/09/08 14:27:39;;;;;;;8.40;5.30;;;;;;;;;;143740;569;46018;-55
2021/09/08 14:30:07;;;;;;;8.82;5.10;;;;;;;;;;143739;641;46010;-55
2021/09/08 14:32:34;;;;;;;8.00;5.15;;;;;;;;;;143743;633;45019;-55
2021/09/08 14:35:03;;;;;;;8.35;5.65;;;;;;;;;;143744;620;46022;-55
2021/09/08 14:37:30;;;;;;;7.97;5.10;;;;;;;;;;143740;583;46019;-55
2021/09/08 14:39:57;;;;;;;8.60;5.45;;;;;;;;;;143738;573;46010;-55
2021/09/08 14:42:24;;;;;;;6.90;5.00;;;;;;;;;;143743;579;45018;-55
2021/09/08 14:44:51;;;;;;;8.07;5.18;;;;;;;;;;143742;616;46023;-55
2021/09/08 14:47:19;;;;;;;9.43;5.20;;;;;;;;;;143734;645;46018;-55